createdAt,value
2023-05-19T00:00:47.508Z,21.27
2023-05-19T00:02:10.829Z,16.17
2023-05-19T00:03:34.029Z,19.90
2023-05-19T00:04:56.370Z,21.70
2023-05-19T00:06:24.080Z,17.60
2023-05-19T00:07:47.444Z,19.80
2023-05-19T00:09:10.635Z,21.50
2023-05-19T00:10:33.284Z,18.57
2023-05-19T00:11:56.810Z,15.93
2023-05-19T00:13:19.788Z,17.17
2023-05-19T00:14:42.333Z,15.57
2023-05-19T00:16:06.058Z,14.90
2023-05-19T00:17:28.527Z,18.23
2023-05-19T00:18:51.755Z,18.45
2023-05-19T00:20:14.270Z,17.10
2023-05-19T00:21:39.668Z,19.57
2023-05-19T00:23:01.963Z,18.37
2023-05-19T00:24:24.302Z,16.20
2023-05-19T00:25:46.641Z,10.40
2023-05-19T00:27:08.904Z,17.07
2023-05-19T00:28:31.176Z,14.20
2023-05-19T00:29:53.452Z,13.40
2023-05-19T00:31:15.731Z,14.10
2023-05-19T00:32:38.095Z,10.87
2023-05-19T00:34:00.380Z,17.33
2023-05-19T00:35:24.016Z,10.80
2023-05-19T00:36:46.141Z,12.60
2023-05-19T00:38:08.398Z,9.33
2023-05-19T00:39:30.600Z,8.97
2023-05-19T00:40:52.861Z,10.33
2023-05-19T00:42:15.265Z,8.97
2023-05-19T00:43:37.322Z,9.00
2023-05-19T00:44:59.864Z,11.70
2023-05-19T00:46:22.986Z,10.33
2023-05-19T00:47:45.286Z,11.73
2023-05-19T00:49:07.423Z,7.87
2023-05-19T00:50:29.717Z,9.33
2023-05-19T00:51:52.184Z,8.40
2023-05-19T00:53:17.497Z,14.37
2023-05-19T00:54:39.579Z,9.87
2023-05-19T00:56:03.097Z,11.27
2023-05-19T00:57:26.980Z,10.83
2023-05-19T00:58:51.853Z,22.03
2023-05-19T01:00:14.694Z,8.47
2023-05-19T01:01:37.238Z,15.80
2023-05-19T01:02:59.597Z,7.90
2023-05-19T01:04:22.289Z,10.40
2023-05-19T01:05:53.590Z,8.03
2023-05-19T01:07:16.420Z,8.60
2023-05-19T01:08:38.972Z,6.97
2023-05-19T01:10:01.139Z,5.80
2023-05-19T01:11:23.250Z,11.10
2023-05-19T01:12:45.773Z,16.83
2023-05-19T01:14:08.288Z,10.23
2023-05-19T01:15:33.190Z,11.17
2023-05-19T01:17:05.531Z,7.53
2023-05-19T01:18:46.409Z,9.45
2023-05-19T01:20:38.523Z,10.13
2023-05-19T01:22:26.980Z,8.90
2023-05-19T01:24:14.398Z,7.50
2023-05-19T01:26:01.010Z,7.77
2023-05-19T01:27:43.320Z,8.83
2023-05-19T01:29:40.369Z,11.33
2023-05-19T01:31:04.624Z,11.60
2023-05-19T01:32:28.790Z,8.33
2023-05-19T01:33:54.100Z,12.60
2023-05-19T01:35:17.147Z,8.17
2023-05-19T01:36:44.785Z,9.63
2023-05-19T01:38:10.263Z,4.27
2023-05-19T01:39:33.544Z,7.20
2023-05-19T01:40:57.302Z,7.60
2023-05-19T01:42:20.414Z,9.20
2023-05-19T01:43:42.971Z,6.53
2023-05-19T01:45:06.710Z,6.17
2023-05-19T01:46:28.935Z,10.90
2023-05-19T01:47:55.489Z,8.20
2023-05-19T01:49:17.718Z,10.23
2023-05-19T01:50:41.193Z,5.93
2023-05-19T01:52:03.308Z,5.57
2023-05-19T01:53:26.237Z,5.27
2023-05-19T01:54:48.360Z,6.73
2023-05-19T01:56:10.552Z,11.63
2023-05-19T01:57:35.651Z,7.30
2023-05-19T01:59:06.476Z,7.57
2023-05-19T02:00:47.623Z,8.77
2023-05-19T02:02:35.946Z,6.90
2023-05-19T02:04:20.228Z,4.60
2023-05-19T02:06:03.640Z,7.20
2023-05-19T02:07:51.895Z,6.60
2023-05-19T02:09:24.689Z,6.23
2023-05-19T02:10:55.329Z,6.00
2023-05-19T02:12:31.730Z,8.70
2023-05-19T02:13:56.832Z,7.20
2023-05-19T02:15:25.961Z,6.90
2023-05-19T02:16:48.956Z,9.37
2023-05-19T02:18:12.260Z,13.13
2023-05-19T02:19:42.049Z,10.20
2023-05-19T02:21:04.294Z,10.27
2023-05-19T02:22:26.412Z,8.97
2023-05-19T02:23:49.050Z,5.17
2023-05-19T02:25:11.477Z,15.57
2023-05-19T02:26:33.849Z,7.27
2023-05-19T02:27:56.075Z,6.57
2023-05-19T02:29:18.759Z,7.57
2023-05-19T02:30:40.888Z,10.27
2023-05-19T02:32:03.065Z,8.30
2023-05-19T02:33:27.449Z,11.67
2023-05-19T02:34:49.587Z,14.47
2023-05-19T02:36:11.753Z,10.07
2023-05-19T02:37:33.970Z,6.83
2023-05-19T02:38:56.251Z,28.27
2023-05-19T02:40:18.620Z,11.10
2023-05-19T02:41:40.925Z,8.93
2023-05-19T02:43:03.450Z,7.10
2023-05-19T02:44:25.540Z,11.10
2023-05-19T02:45:47.668Z,11.53
2023-05-19T02:47:09.871Z,8.87
2023-05-19T02:48:31.938Z,15.37
2023-05-19T02:49:54.000Z,17.90
2023-05-19T02:51:16.115Z,10.20
2023-05-19T02:52:38.204Z,9.27
2023-05-19T02:54:00.325Z,19.27
2023-05-19T02:55:22.453Z,7.93
2023-05-19T02:56:44.532Z,9.50
2023-05-19T02:58:06.651Z,7.73
2023-05-19T02:59:28.922Z,11.20
2023-05-19T03:00:51.410Z,9.30
2023-05-19T03:02:13.596Z,8.00
2023-05-19T03:03:36.066Z,8.30
2023-05-19T03:04:58.243Z,10.63
2023-05-19T03:06:23.206Z,7.17
2023-05-19T03:07:45.614Z,8.07
2023-05-19T03:09:07.871Z,9.37
2023-05-19T03:10:31.056Z,7.83
2023-05-19T03:11:53.225Z,12.67
2023-05-19T03:13:17.057Z,6.77
2023-05-19T03:14:39.272Z,4.90
2023-05-19T03:16:02.090Z,5.57
2023-05-19T03:17:24.346Z,5.63
2023-05-19T03:18:46.594Z,6.40
2023-05-19T03:20:10.853Z,5.27
2023-05-19T03:21:34.492Z,9.10
2023-05-19T03:22:58.341Z,5.80
2023-05-19T03:24:20.398Z,8.20
2023-05-19T03:25:42.539Z,12.37
2023-05-19T03:27:07.814Z,5.67
2023-05-19T03:28:29.976Z,12.70
2023-05-19T03:29:52.816Z,8.30
2023-05-19T03:31:14.952Z,6.17
2023-05-19T03:32:40.114Z,8.60
2023-05-19T03:34:03.213Z,12.20
2023-05-19T03:35:25.390Z,11.80
2023-05-19T03:36:49.798Z,12.87
2023-05-19T03:38:11.909Z,10.43
2023-05-19T03:39:34.003Z,6.70
2023-05-19T03:40:56.155Z,7.43
2023-05-19T03:42:18.245Z,6.20
2023-05-19T03:43:40.340Z,5.03
2023-05-19T03:45:03.518Z,5.97
2023-05-19T03:46:25.643Z,7.87
2023-05-19T03:47:47.923Z,7.63
2023-05-19T03:49:11.449Z,7.23
2023-05-19T03:50:34.094Z,5.77
2023-05-19T03:51:56.415Z,7.13
2023-05-19T03:53:18.532Z,7.80
2023-05-19T03:54:42.617Z,6.60
2023-05-19T03:56:05.454Z,8.90
2023-05-19T03:57:29.521Z,6.70
2023-05-19T03:58:51.738Z,11.87
2023-05-19T04:00:14.446Z,8.63
2023-05-19T04:01:37.013Z,6.57
2023-05-19T04:03:00.224Z,5.20
2023-05-19T04:04:22.839Z,7.97
2023-05-19T04:05:45.045Z,5.33
2023-05-19T04:07:07.249Z,6.17
2023-05-19T04:08:29.381Z,10.10
2023-05-19T04:09:51.473Z,14.77
2023-05-19T04:11:13.639Z,9.67
2023-05-19T04:12:35.943Z,6.47
2023-05-19T04:13:58.124Z,8.20
2023-05-19T04:15:20.340Z,8.23
2023-05-19T04:16:42.522Z,8.80
2023-05-19T04:18:04.691Z,9.77
2023-05-19T04:19:26.977Z,7.97
2023-05-19T04:20:49.244Z,7.10
2023-05-19T04:22:11.364Z,7.90
2023-05-19T04:23:33.479Z,6.00
2023-05-19T04:24:56.209Z,7.43
2023-05-19T04:26:19.392Z,17.77
2023-05-19T04:27:41.546Z,8.10
2023-05-19T04:29:04.612Z,12.60
2023-05-19T04:30:26.801Z,7.87
2023-05-19T04:31:49.424Z,9.50
2023-05-19T04:33:11.896Z,8.03
2023-05-19T04:34:35.327Z,7.43
2023-05-19T04:35:58.355Z,7.47
2023-05-19T04:37:20.584Z,8.00
2023-05-19T04:38:42.932Z,7.70
2023-05-19T04:40:06.317Z,5.17
2023-05-19T04:41:28.662Z,5.30
2023-05-19T04:42:52.332Z,11.10
2023-05-19T04:44:18.193Z,8.03
2023-05-19T04:45:42.495Z,6.33
2023-05-19T04:47:06.258Z,7.43
2023-05-19T04:48:30.984Z,9.13
2023-05-19T04:49:55.439Z,16.87
2023-05-19T04:51:17.795Z,7.90
2023-05-19T04:52:42.397Z,11.13
2023-05-19T04:54:04.588Z,9.33
2023-05-19T04:55:27.046Z,14.23
2023-05-19T04:56:49.188Z,6.80
2023-05-19T04:58:11.259Z,7.97
2023-05-19T04:59:33.390Z,7.33
2023-05-19T05:00:55.954Z,6.73
2023-05-19T05:02:18.115Z,10.33
2023-05-19T05:03:40.326Z,5.13
2023-05-19T05:05:02.541Z,8.10
2023-05-19T05:06:24.906Z,6.33
2023-05-19T05:07:47.731Z,4.63
2023-05-19T05:09:10.473Z,6.30
2023-05-19T05:10:32.764Z,3.37
2023-05-19T05:11:55.399Z,8.17
2023-05-19T05:13:18.244Z,8.20
2023-05-19T05:14:40.860Z,5.03
2023-05-19T05:16:06.434Z,6.30
2023-05-19T05:17:28.983Z,9.00
2023-05-19T05:18:51.394Z,3.50
2023-05-19T05:20:14.147Z,6.93
2023-05-19T05:21:36.635Z,4.60
2023-05-19T05:23:01.104Z,6.17
2023-05-19T05:24:23.607Z,5.40
2023-05-19T05:25:46.876Z,8.13
2023-05-19T05:27:10.235Z,3.40
2023-05-19T05:28:32.486Z,2.60
2023-05-19T05:29:56.000Z,2.93
2023-05-19T05:31:18.935Z,7.70
2023-05-19T05:32:41.379Z,3.87
2023-05-19T05:34:03.547Z,5.47
2023-05-19T05:35:25.833Z,7.63
2023-05-19T05:36:48.052Z,5.73
2023-05-19T05:38:11.562Z,6.67
2023-05-19T05:39:33.765Z,4.07
2023-05-19T05:40:55.939Z,5.10
2023-05-19T05:42:18.127Z,6.00
2023-05-19T05:43:40.294Z,5.17
2023-05-19T05:45:02.687Z,5.87
2023-05-19T05:46:24.895Z,2.90
2023-05-19T05:47:47.401Z,6.00
2023-05-19T05:49:10.141Z,5.03
2023-05-19T05:50:32.590Z,6.20
2023-05-19T05:53:26.624Z,4.27
2023-05-19T05:54:49.034Z,6.23
2023-05-19T05:56:12.008Z,6.07
2023-05-19T05:57:37.042Z,6.87
2023-05-19T05:58:59.440Z,4.97
2023-05-19T06:00:22.376Z,2.70
2023-05-19T06:01:44.547Z,5.50
2023-05-19T06:03:06.791Z,2.67
2023-05-19T06:04:28.916Z,6.00
2023-05-19T06:05:51.133Z,3.50
2023-05-19T06:07:13.308Z,6.20
2023-05-19T06:08:35.454Z,3.23
2023-05-19T06:09:57.583Z,5.00
2023-05-19T06:11:19.797Z,6.27
2023-05-19T06:12:43.189Z,5.60
2023-05-19T06:14:05.324Z,5.47
2023-05-19T06:15:27.532Z,3.60
2023-05-19T06:16:49.724Z,7.57
2023-05-19T06:18:11.865Z,6.17
2023-05-19T06:19:34.042Z,11.90
2023-05-19T06:20:56.185Z,3.50
2023-05-19T06:22:18.360Z,1.80
2023-05-19T06:23:41.215Z,4.23
2023-05-19T06:25:03.646Z,3.37
2023-05-19T06:26:26.461Z,2.50
2023-05-19T06:27:48.569Z,5.20
2023-05-19T06:29:11.336Z,2.60
2023-05-19T06:30:33.653Z,4.43
2023-05-19T06:31:56.884Z,4.57
2023-05-19T06:33:19.250Z,3.20
2023-05-19T06:34:41.574Z,6.23
2023-05-19T06:36:04.038Z,5.83
2023-05-19T06:37:26.308Z,3.20
2023-05-19T06:38:48.560Z,2.80
2023-05-19T06:40:11.311Z,1.23
2023-05-19T06:41:34.578Z,5.97
2023-05-19T06:42:56.673Z,2.30
2023-05-19T06:44:20.498Z,3.53
2023-05-19T06:45:43.398Z,1.87
2023-05-19T06:47:05.615Z,3.70
2023-05-19T06:48:28.148Z,2.80
2023-05-19T06:49:56.102Z,2.20
2023-05-19T06:51:21.763Z,3.10
2023-05-19T06:52:44.370Z,2.37
2023-05-19T06:54:06.493Z,2.53
2023-05-19T06:55:28.716Z,2.40
2023-05-19T06:56:50.915Z,2.93
2023-05-19T06:58:13.043Z,4.43
2023-05-19T06:59:37.389Z,2.80
2023-05-19T07:00:59.526Z,2.67
2023-05-19T07:02:21.667Z,1.90
2023-05-19T07:03:43.852Z,2.50
2023-05-19T07:05:06.503Z,2.90
2023-05-19T07:06:28.683Z,3.93
2023-05-19T07:07:50.910Z,2.60
2023-05-19T07:09:13.086Z,2.63
2023-05-19T07:10:35.685Z,2.50
2023-05-19T07:11:57.846Z,2.20
2023-05-19T07:13:19.956Z,3.93
2023-05-19T07:14:42.209Z,1.97
2023-05-19T07:16:04.550Z,1.20
2023-05-19T07:17:26.857Z,3.10
2023-05-19T07:18:49.109Z,2.77
2023-05-19T07:20:11.618Z,2.60
2023-05-19T07:21:33.815Z,3.57
2023-05-19T07:22:55.925Z,2.83
2023-05-19T07:24:18.060Z,1.80
2023-05-19T07:25:40.174Z,1.43
2023-05-19T07:27:02.378Z,3.03
2023-05-19T07:28:24.542Z,5.70
2023-05-19T07:29:46.727Z,2.30
2023-05-19T07:31:09.322Z,6.43
2023-05-19T07:32:31.572Z,3.00
2023-05-19T07:33:54.719Z,2.13
2023-05-19T07:35:17.148Z,3.60
2023-05-19T07:36:39.496Z,1.90
2023-05-19T07:38:02.255Z,6.23
2023-05-19T07:39:26.662Z,3.73
2023-05-19T07:40:48.810Z,2.00
2023-05-19T07:42:11.009Z,4.30
2023-05-19T07:43:33.170Z,2.53
2023-05-19T07:44:55.312Z,3.03
2023-05-19T07:46:17.560Z,3.67
2023-05-19T07:47:39.821Z,1.50
2023-05-19T07:49:02.253Z,3.13
2023-05-19T07:50:24.522Z,2.50
2023-05-19T07:51:46.744Z,2.17
2023-05-19T07:53:08.838Z,4.60
2023-05-19T07:54:30.999Z,2.90
2023-05-19T07:55:53.108Z,2.20
2023-05-19T07:57:15.303Z,3.47
2023-05-19T07:58:37.485Z,4.10
2023-05-19T07:59:59.716Z,1.57
2023-05-19T08:01:22.040Z,2.77
2023-05-19T08:02:44.821Z,1.77
2023-05-19T08:04:07.721Z,3.23
2023-05-19T08:05:31.330Z,2.60
2023-05-19T08:06:54.059Z,5.10
2023-05-19T08:08:19.680Z,4.70
2023-05-19T08:09:41.733Z,3.83
2023-05-19T08:11:04.580Z,2.73
2023-05-19T08:12:26.777Z,1.87
2023-05-19T08:13:49.335Z,1.73
2023-05-19T08:15:14.186Z,2.20
2023-05-19T08:16:36.360Z,2.93
2023-05-19T08:17:58.484Z,1.20
2023-05-19T08:19:21.865Z,2.67
2023-05-19T08:20:44.301Z,2.23
2023-05-19T08:22:06.408Z,1.40
2023-05-19T08:23:28.518Z,3.77
2023-05-19T08:24:51.828Z,2.70
2023-05-19T08:26:13.969Z,1.40
2023-05-19T08:27:36.334Z,3.00
2023-05-19T08:28:58.518Z,5.10
2023-05-19T08:30:20.672Z,3.80
2023-05-19T08:31:42.890Z,1.93
2023-05-19T08:33:05.084Z,2.67
2023-05-19T08:34:27.337Z,2.97
2023-05-19T08:35:49.497Z,4.00
2023-05-19T08:37:11.941Z,2.80
2023-05-19T08:38:35.099Z,3.33
2023-05-19T08:39:57.402Z,1.60
2023-05-19T08:41:19.687Z,2.63
2023-05-19T08:42:41.896Z,2.43
2023-05-19T08:44:05.345Z,4.73
2023-05-19T08:45:27.694Z,1.40
2023-05-19T08:46:53.146Z,2.20
2023-05-19T08:48:17.809Z,4.30
2023-05-19T08:49:52.518Z,1.67
2023-05-19T08:51:38.420Z,5.43
2023-05-19T08:53:01.549Z,3.00
2023-05-19T08:54:30.225Z,5.43
2023-05-19T08:56:21.995Z,5.83
2023-05-19T08:57:47.110Z,3.67
2023-05-19T08:59:10.085Z,1.83
2023-05-19T09:00:33.794Z,1.57
2023-05-19T09:01:57.891Z,1.50
2023-05-19T09:03:23.991Z,1.47
2023-05-19T09:04:48.098Z,2.17
2023-05-19T09:06:14.191Z,2.53
2023-05-19T09:07:43.163Z,5.37
2023-05-19T09:09:06.166Z,2.10
2023-05-19T09:10:29.203Z,1.83
2023-05-19T09:11:51.479Z,1.67
2023-05-19T09:13:13.676Z,1.60
2023-05-19T09:14:39.451Z,2.37
2023-05-19T09:16:03.126Z,4.03
2023-05-19T09:17:25.506Z,1.70
2023-05-19T09:18:56.141Z,3.47
2023-05-19T09:20:18.412Z,4.90
2023-05-19T09:21:40.695Z,4.80
2023-05-19T09:23:03.673Z,4.37
2023-05-19T09:24:26.145Z,2.73
2023-05-19T09:25:52.357Z,4.23
2023-05-19T09:27:16.528Z,3.80
2023-05-19T09:28:40.397Z,5.93
2023-05-19T09:30:09.207Z,2.30
2023-05-19T09:31:33.588Z,1.77
2023-05-19T09:32:56.014Z,4.47
2023-05-19T09:34:19.023Z,5.30
2023-05-19T09:35:46.497Z,3.20
2023-05-19T09:37:08.751Z,2.47
2023-05-19T09:38:30.900Z,3.53
2023-05-19T09:39:53.494Z,2.33
2023-05-19T09:41:15.923Z,1.97
2023-05-19T09:42:39.774Z,3.37
2023-05-19T09:44:01.887Z,1.57
2023-05-19T09:45:27.234Z,1.73
2023-05-19T09:46:50.764Z,6.67
2023-05-19T09:48:15.839Z,1.80
2023-05-19T09:49:46.769Z,3.57
2023-05-19T09:51:11.851Z,2.83
2023-05-19T09:52:42.710Z,1.67
2023-05-19T09:54:04.814Z,3.03
2023-05-19T09:55:29.520Z,1.70
2023-05-19T09:57:02.439Z,3.57
2023-05-19T09:58:24.984Z,4.10
2023-05-19T09:59:47.445Z,1.23
2023-05-19T10:01:09.834Z,4.83
2023-05-19T10:02:32.787Z,2.50
2023-05-19T10:03:55.706Z,2.10
2023-05-19T10:05:20.376Z,2.00
2023-05-19T10:06:45.168Z,1.93
2023-05-19T10:08:10.275Z,3.00
2023-05-19T10:09:33.415Z,1.83
2023-05-19T10:10:56.750Z,1.53
2023-05-19T10:12:19.718Z,2.80
2023-05-19T10:13:43.642Z,1.63
2023-05-19T10:15:16.581Z,1.10
2023-05-19T10:16:39.530Z,2.10
2023-05-19T10:18:03.543Z,5.17
2023-05-19T10:19:29.525Z,1.03
2023-05-19T10:20:52.710Z,3.57
2023-05-19T10:22:14.904Z,7.17
2023-05-19T10:23:37.125Z,2.10
2023-05-19T10:24:59.308Z,2.77
2023-05-19T10:26:22.482Z,1.80
2023-05-19T10:28:21.376Z,6.60
2023-05-19T10:29:49.772Z,5.80
2023-05-19T10:31:17.036Z,1.20
2023-05-19T10:32:41.369Z,1.87
2023-05-19T10:34:22.013Z,2.20
2023-05-19T10:36:13.929Z,2.80
2023-05-19T10:38:03.499Z,4.10
2023-05-19T10:39:28.855Z,2.10
2023-05-19T10:41:12.920Z,1.53
2023-05-19T10:42:40.975Z,2.60
2023-05-19T10:44:24.423Z,1.00
2023-05-19T10:45:53.224Z,1.20
2023-05-19T10:47:22.264Z,6.97
2023-05-19T10:48:46.281Z,0.80
2023-05-19T10:50:09.840Z,1.10
2023-05-19T10:51:32.454Z,2.63
2023-05-19T10:52:56.549Z,1.63
2023-05-19T10:54:47.231Z,2.30
2023-05-19T10:56:10.120Z,1.90
2023-05-19T10:57:33.248Z,5.60
2023-05-19T10:58:55.467Z,1.97
2023-05-19T11:00:33.934Z,2.37
2023-05-19T11:01:56.157Z,2.90
2023-05-19T11:03:26.274Z,3.17
2023-05-19T11:04:51.942Z,2.47
2023-05-19T11:06:24.590Z,2.33
2023-05-19T11:08:12.091Z,1.40
2023-05-19T11:09:41.040Z,3.10
2023-05-19T11:11:16.870Z,1.60
2023-05-19T11:12:45.323Z,1.20
2023-05-19T11:14:07.459Z,1.93
2023-05-19T11:15:29.609Z,1.40
2023-05-19T11:16:56.251Z,2.53
2023-05-19T11:18:19.645Z,2.20
2023-05-19T11:19:59.906Z,1.17
2023-05-19T11:21:22.150Z,4.10
2023-05-19T11:23:10.671Z,1.00
2023-05-19T11:24:38.227Z,6.13
2023-05-19T11:26:02.516Z,1.63
2023-05-19T11:27:37.381Z,5.07
2023-05-19T11:29:00.242Z,1.37
2023-05-19T11:30:23.208Z,2.23
2023-05-19T11:31:45.480Z,2.10
2023-05-19T11:33:08.666Z,1.13
2023-05-19T11:34:31.393Z,1.43
2023-05-19T11:35:58.454Z,1.83
2023-05-19T11:37:20.857Z,0.90
2023-05-19T11:38:44.878Z,2.90
2023-05-19T11:40:08.024Z,1.30
2023-05-19T11:41:30.982Z,6.93
2023-05-19T11:42:53.253Z,1.83
2023-05-19T11:44:15.385Z,2.13
2023-05-19T11:45:37.844Z,4.90
2023-05-19T11:47:00.977Z,1.67
2023-05-19T11:48:23.600Z,1.70
2023-05-19T11:49:48.561Z,1.30
2023-05-19T11:51:10.893Z,2.00
2023-05-19T11:52:33.168Z,4.13
2023-05-19T11:53:55.770Z,8.63
2023-05-19T11:55:25.277Z,1.60
2023-05-19T11:56:47.693Z,1.63
2023-05-19T11:58:10.027Z,2.20
2023-05-19T11:59:36.676Z,2.03
2023-05-19T12:01:04.324Z,3.90
2023-05-19T12:02:27.741Z,1.73
2023-05-19T12:03:50.295Z,2.77
2023-05-19T12:05:22.575Z,2.30
2023-05-19T12:06:44.971Z,3.33
2023-05-19T12:08:07.668Z,2.93
2023-05-19T12:09:30.027Z,1.70
2023-05-19T12:10:52.741Z,3.83
2023-05-19T12:12:19.350Z,4.70
2023-05-19T12:13:41.582Z,5.33
2023-05-19T12:15:04.815Z,2.93
2023-05-19T12:17:16.491Z,1.20
2023-05-19T12:18:40.381Z,4.60
2023-05-19T12:20:04.854Z,1.50
2023-05-19T12:21:34.244Z,1.63
2023-05-19T12:22:56.854Z,6.10
2023-05-19T12:24:20.486Z,2.57
2023-05-19T12:25:42.669Z,3.13
2023-05-19T12:27:14.119Z,2.30
2023-05-19T12:28:36.672Z,4.03
2023-05-19T12:29:58.764Z,5.43
2023-05-19T12:31:25.010Z,1.70
2023-05-19T12:32:49.057Z,1.80
2023-05-19T12:34:13.163Z,2.83
2023-05-19T12:35:37.978Z,1.97
2023-05-19T12:37:02.634Z,5.67
2023-05-19T12:38:24.850Z,1.87
2023-05-19T12:39:49.018Z,2.03
2023-05-19T12:41:14.809Z,4.60
2023-05-19T12:42:37.814Z,5.13
2023-05-19T12:43:59.982Z,2.27
2023-05-19T12:45:23.265Z,6.07
2023-05-19T12:46:45.397Z,2.27
2023-05-19T12:48:15.855Z,4.90
2023-05-19T12:49:53.182Z,5.33
2023-05-19T12:51:21.099Z,4.03
2023-05-19T12:52:48.797Z,6.30
2023-05-19T12:54:11.228Z,1.30
2023-05-19T12:55:41.917Z,2.93
2023-05-19T12:57:06.737Z,2.20
2023-05-19T12:58:34.038Z,2.60
2023-05-19T13:00:20.923Z,5.60
2023-05-19T13:01:43.182Z,2.67
2023-05-19T13:03:09.914Z,1.73
2023-05-19T13:04:32.036Z,2.80
2023-05-19T13:05:54.156Z,5.97
2023-05-19T13:07:16.302Z,2.40
2023-05-19T13:08:40.039Z,5.20
2023-05-19T13:10:02.469Z,4.80
2023-05-19T13:11:24.573Z,3.03
2023-05-19T13:12:46.743Z,4.60
2023-05-19T13:14:08.860Z,4.80
2023-05-19T13:15:36.393Z,4.03
2023-05-19T13:16:58.544Z,4.57
2023-05-19T13:18:21.914Z,7.03
2023-05-19T13:19:44.176Z,2.13
2023-05-19T13:21:06.398Z,1.73
2023-05-19T13:22:28.508Z,2.80
2023-05-19T13:23:52.843Z,4.23
2023-05-19T13:25:15.162Z,2.37
2023-05-19T13:26:37.279Z,8.63
2023-05-19T13:28:01.267Z,4.03
2023-05-19T13:29:23.425Z,5.70
2023-05-19T13:30:45.719Z,2.60
2023-05-19T13:32:08.503Z,3.80
2023-05-19T13:33:30.844Z,5.63
2023-05-19T13:34:52.969Z,6.00
2023-05-19T13:36:15.052Z,4.30
2023-05-19T13:37:37.502Z,5.87
2023-05-19T13:39:00.786Z,3.10
2023-05-19T13:40:24.044Z,2.20
2023-05-19T13:41:46.730Z,1.10
2023-05-19T13:43:09.588Z,6.20
2023-05-19T13:44:32.579Z,3.13
2023-05-19T13:45:54.866Z,6.47
2023-05-19T13:47:17.037Z,1.93
2023-05-19T13:48:39.216Z,2.87
2023-05-19T13:50:04.626Z,4.37
2023-05-19T13:51:27.014Z,1.63
2023-05-19T13:52:49.348Z,5.10
2023-05-19T13:54:11.492Z,2.20
2023-05-19T13:55:33.730Z,2.90
2023-05-19T13:56:55.966Z,1.17
2023-05-19T13:58:18.088Z,1.83
2023-05-19T13:59:49.327Z,2.13
2023-05-19T14:01:19.665Z,2.23
2023-05-19T14:02:42.396Z,2.57
2023-05-19T14:04:05.390Z,4.10
2023-05-19T14:05:28.848Z,3.47
2023-05-19T14:06:51.123Z,5.67
2023-05-19T14:08:13.255Z,2.73
2023-05-19T14:09:35.399Z,2.30
2023-05-19T14:10:57.522Z,1.37
2023-05-19T14:12:23.238Z,1.17
2023-05-19T14:13:52.750Z,1.00
2023-05-19T14:15:15.174Z,1.20
2023-05-19T14:16:38.366Z,4.30
2023-05-19T14:18:00.690Z,0.80
2023-05-19T14:19:23.849Z,2.30
2023-05-19T14:20:46.070Z,1.13
2023-05-19T14:22:08.279Z,1.33
2023-05-19T14:23:30.837Z,1.70
2023-05-19T14:24:52.959Z,2.50
2023-05-19T14:26:15.400Z,1.40
2023-05-19T14:27:39.713Z,0.90
2023-05-19T14:29:03.058Z,2.87
2023-05-19T14:30:26.353Z,2.33
2023-05-19T14:31:48.522Z,0.90
2023-05-19T14:33:11.272Z,1.87
2023-05-19T14:34:35.259Z,3.83
2023-05-19T14:36:00.232Z,3.67
2023-05-19T14:37:22.372Z,3.77
2023-05-19T14:38:44.581Z,1.20
2023-05-19T14:40:07.222Z,1.93
2023-05-19T14:41:29.824Z,1.27
2023-05-19T14:42:51.884Z,4.03
2023-05-19T14:44:14.028Z,2.80
2023-05-19T14:45:36.334Z,1.65
2023-05-19T14:47:01.060Z,2.50
2023-05-19T14:48:23.286Z,1.77
2023-05-19T14:49:45.523Z,1.87
2023-05-19T14:51:07.669Z,2.60
2023-05-19T14:52:29.836Z,1.63
2023-05-19T14:53:51.955Z,3.30
2023-05-19T14:55:14.052Z,1.30
2023-05-19T14:56:36.210Z,1.00
2023-05-19T14:57:58.370Z,1.73
2023-05-19T14:59:21.642Z,3.00
2023-05-19T15:00:43.912Z,4.20
2023-05-19T15:02:06.326Z,1.50
2023-05-19T15:03:28.512Z,2.53
2023-05-19T15:04:50.766Z,3.80
2023-05-19T15:06:12.940Z,4.00
2023-05-19T15:07:35.036Z,5.40
2023-05-19T15:08:57.226Z,1.17
2023-05-19T15:10:22.421Z,7.63
2023-05-19T15:11:44.517Z,1.30
2023-05-19T15:13:06.671Z,4.13
2023-05-19T15:14:30.513Z,2.40
2023-05-19T15:16:08.457Z,1.73
2023-05-19T15:17:37.511Z,1.30
2023-05-19T15:18:59.687Z,2.20
2023-05-19T15:20:21.871Z,2.43
2023-05-19T15:21:45.618Z,5.37
2023-05-19T15:23:07.773Z,1.33
2023-05-19T15:24:29.908Z,2.50
2023-05-19T15:25:53.015Z,1.80
2023-05-19T15:27:15.231Z,3.57
2023-05-19T15:28:37.408Z,1.70
2023-05-19T15:29:59.598Z,2.20
2023-05-19T15:31:22.387Z,5.87
2023-05-19T15:32:44.522Z,2.10
2023-05-19T15:34:06.679Z,2.40
2023-05-19T15:35:28.851Z,2.10
2023-05-19T15:36:51.124Z,2.23
2023-05-19T15:38:13.208Z,1.40
2023-05-19T15:39:35.326Z,2.30
2023-05-19T15:40:57.534Z,1.33
2023-05-19T15:42:19.598Z,1.63
2023-05-19T15:43:41.730Z,1.37
2023-05-19T15:45:04.681Z,3.33
2023-05-19T15:46:26.833Z,5.50
2023-05-19T15:47:49.081Z,2.43
2023-05-19T15:49:12.825Z,1.43
2023-05-19T15:50:36.063Z,1.10
2023-05-19T15:51:58.384Z,1.63
2023-05-19T15:53:20.614Z,3.10
2023-05-19T15:54:42.718Z,2.70
2023-05-19T15:56:05.092Z,2.20
2023-05-19T15:57:27.181Z,2.60
2023-05-19T15:58:49.594Z,3.57
2023-05-19T16:00:12.364Z,3.50
2023-05-19T16:01:34.598Z,4.27
2023-05-19T16:02:56.767Z,3.00
2023-05-19T16:04:19.111Z,2.50
2023-05-19T16:05:41.234Z,6.73
2023-05-19T16:07:03.477Z,4.47
2023-05-19T16:08:25.777Z,0.80
2023-05-19T16:09:47.882Z,1.67
2023-05-19T16:11:10.061Z,2.80
2023-05-19T16:12:32.187Z,7.33
2023-05-19T16:13:54.329Z,5.33
2023-05-19T16:15:16.511Z,1.40
2023-05-19T16:16:38.742Z,2.47
2023-05-19T16:18:01.030Z,4.20
2023-05-19T16:19:23.944Z,1.37
2023-05-19T16:20:46.481Z,1.40
2023-05-19T16:22:08.575Z,2.10
2023-05-19T16:23:30.804Z,1.90
2023-05-19T16:24:52.984Z,1.20
2023-05-19T16:26:15.092Z,6.20
2023-05-19T16:27:37.186Z,1.97
2023-05-19T16:28:59.352Z,2.70
2023-05-19T16:30:23.101Z,1.20
2023-05-19T16:31:45.445Z,3.43
2023-05-19T16:33:07.607Z,1.10
2023-05-19T16:34:30.682Z,4.60
2023-05-19T16:35:52.937Z,5.03
2023-05-19T16:37:15.118Z,1.27
2023-05-19T16:38:37.185Z,3.43
2023-05-19T16:39:59.317Z,2.83
2023-05-19T16:41:21.638Z,3.83
2023-05-19T16:42:43.702Z,1.60
2023-05-19T16:44:05.818Z,2.90
2023-05-19T16:45:27.998Z,1.97
2023-05-19T16:46:50.342Z,2.20
2023-05-19T16:48:12.628Z,8.13
2023-05-19T16:49:34.959Z,4.20
2023-05-19T16:50:57.131Z,1.83
2023-05-19T16:52:20.080Z,2.33
2023-05-19T16:53:42.178Z,2.03
2023-05-19T16:55:04.894Z,1.97
2023-05-19T16:56:27.074Z,2.77
2023-05-19T16:57:49.232Z,2.43
2023-05-19T16:59:11.309Z,2.77
2023-05-19T17:00:33.576Z,2.20
2023-05-19T17:01:58.647Z,1.93
2023-05-19T17:03:21.006Z,1.10
2023-05-19T17:04:43.233Z,1.93
2023-05-19T17:06:05.432Z,1.63
2023-05-19T17:07:29.104Z,2.83
2023-05-19T17:08:51.349Z,2.03
2023-05-19T17:10:14.431Z,2.13
2023-05-19T17:11:36.564Z,2.23
2023-05-19T17:12:58.633Z,1.00
2023-05-19T17:14:21.061Z,2.13
2023-05-19T17:15:43.553Z,2.23
2023-05-19T17:17:05.921Z,1.87
2023-05-19T17:18:28.268Z,1.20
2023-05-19T17:19:50.639Z,1.53
2023-05-19T17:21:13.409Z,3.53
2023-05-19T17:22:35.582Z,1.47
2023-05-19T17:23:57.714Z,2.90
2023-05-19T17:25:19.886Z,1.30
2023-05-19T17:26:42.079Z,1.40
2023-05-19T17:28:04.751Z,2.33
2023-05-19T17:29:27.987Z,2.90
2023-05-19T17:30:50.284Z,0.90
2023-05-19T17:32:12.401Z,2.03
2023-05-19T17:33:34.525Z,3.00
2023-05-19T17:34:57.985Z,4.07
2023-05-19T17:36:20.555Z,1.97
2023-05-19T17:37:42.747Z,1.37
2023-05-19T17:39:04.879Z,1.60
2023-05-19T17:40:27.055Z,1.53
2023-05-19T17:41:49.223Z,3.13
2023-05-19T17:43:11.418Z,1.30
2023-05-19T17:44:33.715Z,1.10
2023-05-19T17:45:56.158Z,2.03
2023-05-19T17:47:18.674Z,2.37
2023-05-19T17:48:40.856Z,3.30
2023-05-19T17:50:03.235Z,1.77
2023-05-19T17:51:25.879Z,0.90
2023-05-19T17:52:48.797Z,1.10
2023-05-19T17:54:11.306Z,2.13
2023-05-19T17:55:34.182Z,1.00
2023-05-19T17:56:58.715Z,2.43
2023-05-19T17:58:21.142Z,1.53
2023-05-19T17:59:43.679Z,2.57
2023-05-19T18:01:06.149Z,1.73
2023-05-19T18:02:28.639Z,1.67
2023-05-19T18:03:51.556Z,1.83
2023-05-19T18:05:14.711Z,2.23
2023-05-19T18:06:44.098Z,3.30
2023-05-19T18:08:10.325Z,3.43
2023-05-19T18:09:36.862Z,5.70
2023-05-19T18:10:59.762Z,0.90
2023-05-19T18:12:22.740Z,3.50
2023-05-19T18:13:44.894Z,1.23
2023-05-19T18:15:07.322Z,1.53
2023-05-19T18:16:29.546Z,1.10
2023-05-19T18:17:51.786Z,1.20
2023-05-19T18:19:13.970Z,2.90
2023-05-19T18:20:37.905Z,3.07
2023-05-19T18:22:00.182Z,1.97
2023-05-19T18:23:22.508Z,5.70
2023-05-19T18:24:44.759Z,3.20
2023-05-19T18:26:07.149Z,1.10
2023-05-19T18:27:29.807Z,1.77
2023-05-19T18:28:51.942Z,2.10
2023-05-19T18:30:14.141Z,2.03
2023-05-19T18:31:36.353Z,6.43
2023-05-19T18:33:02.088Z,2.17
2023-05-19T18:34:24.324Z,2.50
2023-05-19T18:35:46.576Z,1.20
2023-05-19T18:37:08.775Z,1.63